Terminal Aerodrome Forecast
Issued by NWS

Home | Current Version | Previous Version | Text Only | Print | Product List | Glossary Off
Versions: 1 2 3 4 5 6 7 8 9 10 11 12 13 14 15

658
FTUS43 KSGF 241621 AAB
TAFJLN
TAF AMD
KJLN 241621Z 2416/2512 24005KT P6SM VCTS OVC020CB
      TEMPO 2416/2419 -TSRA BKN015CB OVC050
     FM250000 17010KT P6SM SCT040 SCT120
     FM250600 18010KT P6SM VCSH SCT040 BKN090=

USA.gov is the U.S. government's official web portal to all federal, state and local government web resources and services.